createdAt,value
2023-04-28T00:00:56.611Z,24.25
2023-04-28T00:01:56.600Z,24.24
2023-04-28T00:02:56.686Z,24.25
2023-04-28T00:03:56.711Z,24.24
2023-04-28T00:04:56.795Z,24.25
2023-04-28T00:05:56.636Z,24.25
2023-04-28T00:06:56.630Z,24.25
2023-04-28T00:07:56.567Z,24.24
2023-04-28T00:08:56.560Z,24.24
2023-04-28T00:09:56.542Z,24.24
2023-04-28T00:10:56.575Z,24.24
2023-04-28T00:11:56.544Z,24.24
2023-04-28T00:12:56.535Z,24.24
2023-04-28T00:13:56.561Z,24.25
2023-04-28T00:14:56.518Z,24.25
2023-04-28T00:15:56.528Z,24.25
2023-04-28T00:16:56.593Z,24.24
2023-04-28T00:17:56.605Z,24.24
2023-04-28T00:18:56.494Z,24.24
2023-04-28T00:19:56.471Z,24.24
2023-04-28T00:20:56.498Z,24.24
2023-04-28T00:21:56.514Z,24.23
2023-04-28T00:22:56.497Z,24.24
2023-04-28T00:23:56.480Z,24.24
2023-04-28T00:24:56.465Z,24.22
2023-04-28T00:25:56.457Z,24.23
2023-04-28T00:26:56.454Z,24.23
2023-04-28T00:27:56.442Z,24.22
2023-04-28T00:28:56.451Z,24.23
2023-04-28T00:29:56.500Z,24.23
2023-04-28T00:30:56.601Z,24.23
2023-04-28T00:31:56.696Z,24.23
2023-04-28T00:32:56.662Z,24.22
2023-04-28T00:33:56.652Z,24.23
2023-04-28T00:34:56.729Z,24.22
2023-04-28T00:35:56.745Z,24.23
2023-04-28T00:36:56.807Z,24.22
2023-04-28T00:37:56.830Z,24.22
2023-04-28T00:38:56.902Z,24.22
2023-04-28T00:39:56.955Z,24.22
2023-04-28T00:40:56.954Z,24.22
2023-04-28T00:41:57.038Z,24.22
2023-04-28T00:42:57.063Z,24.22
2023-04-28T00:43:57.091Z,24.21
2023-04-28T00:44:57.171Z,24.23
2023-04-28T00:45:57.244Z,24.22
2023-04-28T00:46:57.256Z,24.21
2023-04-28T00:47:57.313Z,24.22
2023-04-28T00:48:57.325Z,24.21
2023-04-28T00:49:57.364Z,24.22
2023-04-28T00:50:57.418Z,24.21
2023-04-28T00:51:57.500Z,24.22
2023-04-28T00:52:57.676Z,24.22
2023-04-28T00:53:57.546Z,24.21
2023-04-28T00:54:57.625Z,24.22
2023-04-28T00:55:57.653Z,24.21
2023-04-28T00:56:57.699Z,24.21
2023-04-28T00:57:57.759Z,24.21
2023-04-28T00:58:57.774Z,24.22
2023-04-28T00:59:57.836Z,24.21
2023-04-28T01:00:57.866Z,24.21
2023-04-28T01:01:57.932Z,24.21
2023-04-28T01:02:58.180Z,24.21
2023-04-28T01:03:58.221Z,24.20
2023-04-28T01:04:58.040Z,24.21
2023-04-28T01:05:58.100Z,24.21
2023-04-28T01:06:58.159Z,24.21
2023-04-28T01:07:58.210Z,24.21
2023-04-28T01:08:58.264Z,24.21
2023-04-28T01:09:58.305Z,24.21
2023-04-28T01:10:58.345Z,24.21
2023-04-28T01:11:58.419Z,24.21
2023-04-28T01:12:58.414Z,24.22
2023-04-28T01:13:58.472Z,24.20
2023-04-28T01:14:58.516Z,24.21
2023-04-28T01:15:58.562Z,24.21
2023-04-28T01:16:58.760Z,24.20
2023-04-28T01:17:58.753Z,24.20
2023-04-28T01:18:58.711Z,24.21
2023-04-28T01:19:58.768Z,24.20
2023-04-28T01:20:58.774Z,24.20
2023-04-28T01:21:58.828Z,24.20
2023-04-28T01:22:58.864Z,24.20
2023-04-28T01:23:58.945Z,24.20
2023-04-28T01:24:59.081Z,24.20
2023-04-28T01:25:59.026Z,24.20
2023-04-28T01:26:59.080Z,24.19
2023-04-28T01:27:59.135Z,24.19
2023-04-28T01:28:59.183Z,24.20
2023-04-28T01:29:59.226Z,24.19
2023-04-28T01:30:59.260Z,24.19
2023-04-28T01:31:59.324Z,24.19
2023-04-28T01:32:59.382Z,24.20
2023-04-28T01:33:59.389Z,24.20
2023-04-28T01:34:59.457Z,24.19
2023-04-28T01:35:59.530Z,24.19
2023-04-28T01:36:59.559Z,24.19
2023-04-28T01:37:59.577Z,24.19
2023-04-28T01:38:59.609Z,24.19
2023-04-28T01:39:59.690Z,24.19
2023-04-28T01:40:59.776Z,24.19
2023-04-28T01:41:59.793Z,24.19
2023-04-28T01:42:59.807Z,24.19
2023-04-28T01:43:59.857Z,24.18
2023-04-28T01:44:59.917Z,24.18
2023-04-28T01:45:59.999Z,24.19
2023-04-28T01:46:59.985Z,24.19
2023-04-28T01:48:00.070Z,24.19
2023-04-28T01:49:00.095Z,24.19
2023-04-28T01:50:00.197Z,24.18
2023-04-28T01:51:00.189Z,24.19
2023-04-28T01:52:00.234Z,24.19
2023-04-28T01:53:00.267Z,24.18
2023-04-28T01:54:00.335Z,24.19
2023-04-28T01:55:00.362Z,24.18
2023-04-28T01:56:00.421Z,24.18
2023-04-28T01:57:00.468Z,24.19
2023-04-28T01:58:00.488Z,24.19
2023-04-28T01:59:00.552Z,24.18
2023-04-28T02:00:00.660Z,24.18
2023-04-28T02:01:00.637Z,24.18
2023-04-28T02:02:00.757Z,24.18
2023-04-28T02:03:00.755Z,24.18
2023-04-28T02:04:00.903Z,24.18
2023-04-28T02:05:00.871Z,24.18
2023-04-28T02:06:00.903Z,24.18
2023-04-28T02:07:00.921Z,24.18
2023-04-28T02:08:00.965Z,24.18
2023-04-28T02:09:01.027Z,24.18
2023-04-28T02:10:01.064Z,24.18
2023-04-28T02:11:01.121Z,24.17
2023-04-28T02:12:01.181Z,24.17
2023-04-28T02:13:01.226Z,24.18
2023-04-28T02:14:01.259Z,24.18
2023-04-28T02:15:01.341Z,24.17
2023-04-28T02:16:01.421Z,24.17
2023-04-28T02:17:01.471Z,24.18
2023-04-28T02:18:01.556Z,24.18
2023-04-28T02:19:01.534Z,24.18
2023-04-28T02:20:01.580Z,24.18
2023-04-28T02:21:01.633Z,24.18
2023-04-28T02:22:01.712Z,24.17
2023-04-28T02:23:01.756Z,24.17
2023-04-28T02:24:01.760Z,24.17
2023-04-28T02:25:01.849Z,24.17
2023-04-28T02:26:01.872Z,24.17
2023-04-28T02:27:01.935Z,24.17
2023-04-28T02:28:01.972Z,24.18
2023-04-28T02:29:02.035Z,24.17
2023-04-28T02:30:02.072Z,24.17
2023-04-28T02:31:02.165Z,24.17
2023-04-28T02:32:02.155Z,24.17
2023-04-28T02:33:02.289Z,24.17
2023-04-28T02:34:02.280Z,24.17
2023-04-28T02:35:02.306Z,24.16
2023-04-28T02:36:02.365Z,24.16
2023-04-28T02:37:02.437Z,24.16
2023-04-28T02:38:02.494Z,24.16
2023-04-28T02:39:02.507Z,24.16
2023-04-28T02:40:02.583Z,24.16
2023-04-28T02:41:02.604Z,24.16
2023-04-28T02:42:02.683Z,24.17
2023-04-28T02:43:02.694Z,24.16
2023-04-28T02:44:02.782Z,24.16
2023-04-28T02:45:02.813Z,24.16
2023-04-28T02:46:02.896Z,24.16
2023-04-28T02:47:02.965Z,24.15
2023-04-28T02:48:03.006Z,24.16
2023-04-28T02:49:03.025Z,24.16
2023-04-28T02:50:03.067Z,24.16
2023-04-28T02:51:03.151Z,24.16
2023-04-28T02:52:03.213Z,24.16
2023-04-28T02:53:03.209Z,24.15
2023-04-28T02:54:03.284Z,24.16
2023-04-28T02:55:03.336Z,24.16
2023-04-28T02:56:03.368Z,24.16
2023-04-28T02:57:03.448Z,24.16
2023-04-28T02:58:03.475Z,24.16
2023-04-28T02:59:03.505Z,24.16
2023-04-28T03:00:03.573Z,24.16
2023-04-28T03:01:03.605Z,24.15
2023-04-28T03:02:03.687Z,24.15
2023-04-28T03:03:03.771Z,24.15
2023-04-28T03:04:03.983Z,24.15
2023-04-28T03:05:03.859Z,24.15
2023-04-28T03:06:03.819Z,24.15
2023-04-28T03:07:03.912Z,24.16
2023-04-28T03:08:04.626Z,24.15
2023-04-28T03:09:03.971Z,24.16
2023-04-28T03:10:04.005Z,24.15
2023-04-28T03:11:04.046Z,24.15
2023-04-28T03:12:04.106Z,24.15
2023-04-28T03:13:04.168Z,24.16
2023-04-28T03:14:04.249Z,24.16
2023-04-28T03:15:04.307Z,24.15
2023-04-28T03:16:04.363Z,24.15
2023-04-28T03:17:04.365Z,24.16
2023-04-28T03:18:04.487Z,24.16
2023-04-28T03:19:04.460Z,24.15
2023-04-28T03:20:04.565Z,24.15
2023-04-28T03:21:04.558Z,24.15
2023-04-28T03:22:04.599Z,24.14
2023-04-28T03:23:04.671Z,24.15
2023-04-28T03:24:05.665Z,24.15
2023-04-28T03:25:04.754Z,24.15
2023-04-28T03:26:04.816Z,24.15
2023-04-28T03:27:04.879Z,24.14
2023-04-28T03:28:04.900Z,24.14
2023-04-28T03:29:04.940Z,24.15
2023-04-28T03:30:05.007Z,24.15
2023-04-28T03:31:05.034Z,24.15
2023-04-28T03:32:05.081Z,24.14
2023-04-28T03:33:05.185Z,24.14
2023-04-28T03:34:05.172Z,24.14
2023-04-28T03:35:05.205Z,24.15
2023-04-28T03:36:05.265Z,24.14
2023-04-28T03:37:05.321Z,24.14
2023-04-28T03:38:05.361Z,24.14
2023-04-28T03:39:05.404Z,24.15
2023-04-28T03:40:05.421Z,24.15
2023-04-28T03:41:05.510Z,24.15
2023-04-28T03:42:05.524Z,24.15
2023-04-28T03:43:05.565Z,24.15
2023-04-28T03:44:05.636Z,24.14
2023-04-28T03:45:05.701Z,24.15
2023-04-28T03:46:05.738Z,24.15
2023-04-28T03:47:05.817Z,24.14
2023-04-28T03:48:05.896Z,24.14
2023-04-28T03:49:05.889Z,24.14
2023-04-28T03:50:05.963Z,24.14
2023-04-28T03:51:05.975Z,24.14
2023-04-28T03:52:06.028Z,24.14
2023-04-28T03:53:06.080Z,24.14
2023-04-28T03:54:06.121Z,24.14
2023-04-28T03:55:06.194Z,24.14
2023-04-28T03:56:06.219Z,24.14
2023-04-28T03:57:06.276Z,24.15
2023-04-28T03:58:06.309Z,24.14
2023-04-28T03:59:06.356Z,24.14
2023-04-28T04:00:06.423Z,24.14
2023-04-28T04:01:06.501Z,24.14
2023-04-28T04:02:06.625Z,24.14
2023-04-28T04:03:06.661Z,24.14
2023-04-28T04:04:06.811Z,24.14
2023-04-28T04:05:06.956Z,24.14
2023-04-28T04:06:06.733Z,24.14
2023-04-28T04:07:06.747Z,24.14
2023-04-28T04:08:06.807Z,24.14
2023-04-28T04:09:06.865Z,24.14
2023-04-28T04:10:06.930Z,24.14
2023-04-28T04:11:06.976Z,24.15
2023-04-28T04:12:07.016Z,24.15
2023-04-28T04:13:07.099Z,24.14
2023-04-28T04:14:07.138Z,24.15
2023-04-28T04:15:07.166Z,24.15
2023-04-28T04:16:07.279Z,24.14
2023-04-28T04:17:07.292Z,24.14
2023-04-28T04:18:07.370Z,24.14
2023-04-28T04:19:07.385Z,24.14
2023-04-28T04:20:07.444Z,24.14
2023-04-28T04:21:07.511Z,24.15
2023-04-28T04:22:07.572Z,24.14
2023-04-28T04:23:07.596Z,24.14
2023-04-28T04:24:07.660Z,24.14
2023-04-28T04:25:07.690Z,24.14
2023-04-28T04:26:07.734Z,24.14
2023-04-28T04:27:07.785Z,24.15
2023-04-28T04:28:07.838Z,24.14
2023-04-28T04:29:07.916Z,24.14
2023-04-28T04:30:07.940Z,24.14
2023-04-28T04:31:08.022Z,24.14
2023-04-28T04:32:08.033Z,24.14
2023-04-28T04:33:08.093Z,24.14
2023-04-28T04:34:08.121Z,24.14
2023-04-28T04:35:08.193Z,24.14
2023-04-28T04:36:08.240Z,24.15
2023-04-28T04:37:08.313Z,24.14
2023-04-28T04:38:08.335Z,24.14
2023-04-28T04:39:08.405Z,24.14
2023-04-28T04:40:08.422Z,24.15
2023-04-28T04:41:08.512Z,24.15
2023-04-28T04:42:23.337Z,24.16
2023-04-28T04:43:09.549Z,24.15
2023-04-28T04:44:08.517Z,24.14
2023-04-28T04:45:08.533Z,24.15
2023-04-28T04:46:08.533Z,24.14
2023-04-28T04:47:08.515Z,24.14
2023-04-28T04:48:08.562Z,24.14
2023-04-28T04:49:08.505Z,24.14
2023-04-28T04:50:08.533Z,24.14
2023-04-28T04:51:08.528Z,24.14
2023-04-28T04:52:08.559Z,24.14
2023-04-28T04:53:13.183Z,24.14
2023-04-28T04:54:09.560Z,24.14
2023-04-28T04:55:08.576Z,24.13
2023-04-28T04:56:08.553Z,24.15
2023-04-28T04:57:08.539Z,24.14
2023-04-28T04:58:08.529Z,24.15
2023-04-28T04:59:08.529Z,24.14
2023-04-28T05:00:08.533Z,24.14
2023-04-28T05:01:08.493Z,24.14
2023-04-28T05:02:08.602Z,24.14
2023-04-28T05:03:08.616Z,24.15
2023-04-28T05:04:08.762Z,24.15
2023-04-28T05:05:20.403Z,24.15
2023-04-28T05:06:09.612Z,24.15
2023-04-28T05:07:08.579Z,24.15
2023-04-28T05:08:08.594Z,24.14
2023-04-28T05:09:08.594Z,24.14
2023-04-28T05:10:08.608Z,24.15
2023-04-28T05:11:08.562Z,24.15
2023-04-28T05:12:08.569Z,24.15
2023-04-28T05:13:08.555Z,24.15
2023-04-28T05:14:08.554Z,24.15
2023-04-28T05:15:08.605Z,24.16
2023-04-28T05:16:08.665Z,24.16
2023-04-28T05:17:08.702Z,24.15
2023-04-28T05:18:08.873Z,24.15
2023-04-28T05:19:08.802Z,24.16
2023-04-28T05:20:09.227Z,24.15
2023-04-28T05:21:08.919Z,24.15
2023-04-28T05:22:08.950Z,24.15
2023-04-28T05:23:08.989Z,24.15
2023-04-28T05:24:09.055Z,24.16
2023-04-28T05:25:09.165Z,24.15
2023-04-28T05:26:09.151Z,24.16
2023-04-28T05:27:09.194Z,24.15
2023-04-28T05:28:09.244Z,24.16
2023-04-28T05:29:09.313Z,24.16
2023-04-28T05:30:09.351Z,24.15
2023-04-28T05:31:09.393Z,24.15
2023-04-28T05:32:09.477Z,24.15
2023-04-28T05:33:09.544Z,24.15
2023-04-28T05:34:09.542Z,24.15
2023-04-28T05:35:09.586Z,24.14
2023-04-28T05:36:09.658Z,24.15
2023-04-28T05:37:09.695Z,24.17
2023-04-28T05:38:09.717Z,24.16
2023-04-28T05:39:09.777Z,24.17
2023-04-28T05:40:09.849Z,24.19
2023-04-28T05:41:09.913Z,24.21
2023-04-28T05:42:09.944Z,24.24
2023-04-28T05:43:10.015Z,24.26
2023-04-28T05:44:10.040Z,24.29
2023-04-28T05:45:10.068Z,24.28
2023-04-28T05:46:28.288Z,24.26
2023-04-28T05:47:11.166Z,23.96
2023-04-28T05:48:10.137Z,23.61
2023-04-28T05:49:10.142Z,23.27
2023-04-28T05:50:10.113Z,22.90
2023-04-28T05:51:10.088Z,22.57
2023-04-28T05:52:10.181Z,22.37
2023-04-28T05:53:10.065Z,22.22
2023-04-28T05:54:10.071Z,22.05
2023-04-28T05:55:10.050Z,22.01
2023-04-28T05:56:10.054Z,21.99
2023-04-28T05:57:10.176Z,21.96
2023-04-28T05:58:10.026Z,21.94
2023-04-28T05:59:10.035Z,21.92
2023-04-28T06:00:10.025Z,21.86
2023-04-28T06:01:10.021Z,21.85
2023-04-28T06:02:10.241Z,21.84
2023-04-28T06:03:10.297Z,21.79
2023-04-28T06:04:10.459Z,21.78
2023-04-28T06:05:10.444Z,21.78
2023-04-28T06:06:10.554Z,21.78
2023-04-28T06:07:10.335Z,21.76
2023-04-28T06:08:10.403Z,21.72
2023-04-28T06:09:10.475Z,21.70
2023-04-28T06:10:10.534Z,21.65
2023-04-28T06:11:10.584Z,21.63
2023-04-28T06:12:10.632Z,21.62
2023-04-28T06:13:11.757Z,21.53
2023-04-28T06:14:10.830Z,21.48
2023-04-28T06:15:10.844Z,21.46
2023-04-28T06:16:10.980Z,21.43
2023-04-28T06:17:10.976Z,21.42
2023-04-28T06:18:11.040Z,21.40
2023-04-28T06:19:11.100Z,21.40
2023-04-28T06:20:11.185Z,21.38
2023-04-28T06:21:11.182Z,21.35
2023-04-28T06:22:11.717Z,21.33
2023-04-28T06:23:11.246Z,21.34
2023-04-28T06:24:11.354Z,21.35
2023-04-28T06:25:11.383Z,21.34
2023-04-28T06:26:11.425Z,21.34
2023-04-28T06:27:11.492Z,21.37
2023-04-28T06:28:11.518Z,21.37
2023-04-28T06:29:11.571Z,21.38
2023-04-28T06:30:11.629Z,21.40
2023-04-28T06:31:11.689Z,21.37
2023-04-28T06:32:11.764Z,21.33
2023-04-28T06:33:11.789Z,21.26
2023-04-28T06:34:11.795Z,21.26
2023-04-28T06:35:11.794Z,21.22
2023-04-28T06:36:11.780Z,21.20
2023-04-28T06:37:11.782Z,21.14
2023-04-28T06:38:11.793Z,21.00
2023-04-28T06:39:11.799Z,21.00
2023-04-28T06:40:11.819Z,21.08
2023-04-28T06:41:11.816Z,21.17
2023-04-28T06:42:11.809Z,21.27
2023-04-28T06:43:11.897Z,21.37
2023-04-28T06:44:11.950Z,21.47
2023-04-28T06:45:12.037Z,21.55
2023-04-28T06:46:12.196Z,21.58
2023-04-28T06:47:12.154Z,21.67
2023-04-28T06:48:12.234Z,21.78
2023-04-28T06:49:12.228Z,21.88
2023-04-28T06:50:12.460Z,21.96
2023-04-28T06:51:12.397Z,22.04
2023-04-28T06:52:12.291Z,22.09
2023-04-28T06:53:13.211Z,22.12
2023-04-28T06:54:12.327Z,22.11
2023-04-28T06:55:12.349Z,22.12
2023-04-28T06:56:12.345Z,22.12
2023-04-28T06:57:12.368Z,22.17
2023-04-28T06:58:13.112Z,22.25
2023-04-28T06:59:12.340Z,22.32
2023-04-28T07:00:12.341Z,22.40
2023-04-28T07:01:12.417Z,22.46
2023-04-28T07:02:12.477Z,22.53
2023-04-28T07:03:12.571Z,22.60
2023-04-28T07:04:12.628Z,22.67
2023-04-28T07:05:14.082Z,22.71
2023-04-28T07:06:12.565Z,22.75
2023-04-28T07:07:12.566Z,22.81
2023-04-28T07:08:12.539Z,22.85
2023-04-28T07:09:12.610Z,22.88
2023-04-28T07:10:12.550Z,22.91
2023-04-28T07:11:12.525Z,22.94
2023-04-28T07:12:12.513Z,22.97
2023-04-28T07:13:12.498Z,22.99
2023-04-28T07:14:12.511Z,23.00
2023-04-28T07:15:12.947Z,23.01
2023-04-28T07:16:12.542Z,23.03
2023-04-28T07:17:12.473Z,23.03
2023-04-28T07:18:12.515Z,23.01
2023-04-28T07:19:12.459Z,22.99
2023-04-28T07:20:12.461Z,22.97
2023-04-28T07:21:12.444Z,22.95
2023-04-28T07:22:12.655Z,22.90
2023-04-28T07:23:12.693Z,22.87
2023-04-28T07:24:12.457Z,22.84
2023-04-28T07:25:12.437Z,22.79
2023-04-28T07:26:14.302Z,22.77
2023-04-28T07:27:12.462Z,22.73
2023-04-28T07:28:12.425Z,22.68
2023-04-28T07:29:12.485Z,22.65
2023-04-28T07:30:26.715Z,22.59
2023-04-28T07:31:13.535Z,22.56
2023-04-28T07:32:12.614Z,22.54
2023-04-28T07:33:12.566Z,22.54
2023-04-28T07:34:13.225Z,22.53
2023-04-28T07:35:12.519Z,22.53
2023-04-28T07:36:12.509Z,22.55
2023-04-28T07:37:12.513Z,22.57
2023-04-28T07:38:12.506Z,22.59
2023-04-28T07:39:12.467Z,22.62
2023-04-28T07:40:12.490Z,22.61
2023-04-28T07:41:12.523Z,22.62
2023-04-28T07:42:12.551Z,22.61
2023-04-28T07:43:12.721Z,22.64
2023-04-28T07:44:12.690Z,22.57
2023-04-28T07:45:12.732Z,22.47
2023-04-28T07:46:12.839Z,21.97
2023-04-28T07:47:12.754Z,21.54
2023-04-28T07:48:13.257Z,21.52
2023-04-28T07:49:12.720Z,21.64
2023-04-28T07:50:12.747Z,21.75
2023-04-28T07:51:12.722Z,21.87
2023-04-28T07:52:12.728Z,21.96
2023-04-28T07:53:12.737Z,22.00
2023-04-28T07:54:13.204Z,22.01
2023-04-28T07:55:12.689Z,22.01
2023-04-28T07:56:12.717Z,22.05
2023-04-28T07:57:12.686Z,22.10
2023-04-28T07:58:12.700Z,22.03
2023-04-28T07:59:12.694Z,21.99
2023-04-28T08:00:12.715Z,21.78
2023-04-28T08:01:12.710Z,21.66
2023-04-28T08:02:12.795Z,21.63
2023-04-28T08:03:12.939Z,21.64
2023-04-28T08:04:13.014Z,21.76
2023-04-28T08:05:13.291Z,21.81
2023-04-28T08:06:12.771Z,21.83
2023-04-28T08:07:12.766Z,21.85
2023-04-28T08:08:12.768Z,21.92
2023-04-28T08:09:12.752Z,21.97
2023-04-28T08:10:12.780Z,22.00
2023-04-28T08:11:12.773Z,22.03
2023-04-28T08:12:12.782Z,21.95
2023-04-28T08:13:12.744Z,21.97
2023-04-28T08:14:12.742Z,21.96
2023-04-28T08:15:12.762Z,21.90
2023-04-28T08:16:12.809Z,21.87
2023-04-28T08:17:12.790Z,21.73
2023-04-28T08:18:12.857Z,21.64
2023-04-28T08:19:12.835Z,21.66
2023-04-28T08:20:12.852Z,21.51
2023-04-28T08:21:12.898Z,21.40
2023-04-28T08:22:12.905Z,21.31
2023-04-28T08:23:12.941Z,21.39
2023-04-28T08:24:13.004Z,21.35
2023-04-28T08:25:13.025Z,21.42
2023-04-28T08:26:13.037Z,21.40
2023-04-28T08:27:13.121Z,21.25
2023-04-28T08:28:13.159Z,21.06
2023-04-28T08:29:13.169Z,21.00
2023-04-28T08:30:13.247Z,20.74
2023-04-28T08:31:13.286Z,20.54
2023-04-28T08:32:13.334Z,20.68
2023-04-28T08:33:13.447Z,20.54
2023-04-28T08:34:15.237Z,20.68
2023-04-28T08:35:13.421Z,20.57
2023-04-28T08:36:13.416Z,20.45
2023-04-28T08:37:13.421Z,20.27
2023-04-28T08:38:13.386Z,20.44
2023-04-28T08:39:13.792Z,20.69
2023-04-28T08:40:13.411Z,20.93
2023-04-28T08:41:13.389Z,21.17
2023-04-28T08:42:13.345Z,21.42
2023-04-28T08:43:13.350Z,21.64
2023-04-28T08:44:13.360Z,21.86
2023-04-28T08:45:13.375Z,22.07
2023-04-28T08:46:13.384Z,22.23
2023-04-28T08:47:13.375Z,22.39
2023-04-28T08:48:13.374Z,22.55
2023-04-28T08:49:13.340Z,22.70
2023-04-28T08:50:13.309Z,22.84
2023-04-28T08:51:13.310Z,22.96
2023-04-28T08:52:13.285Z,23.07
2023-04-28T08:53:13.289Z,23.17
2023-04-28T08:54:25.442Z,23.25
2023-04-28T08:55:14.318Z,23.32
2023-04-28T08:56:13.290Z,23.40
2023-04-28T08:57:13.392Z,23.48
2023-04-28T08:58:13.731Z,23.55
2023-04-28T08:59:13.246Z,23.61
2023-04-28T09:00:13.257Z,23.69
2023-04-28T09:01:13.246Z,23.74
2023-04-28T09:02:13.401Z,23.79
2023-04-28T09:03:13.344Z,23.84
2023-04-28T09:04:14.563Z,23.90
2023-04-28T09:05:13.312Z,23.94
2023-04-28T09:06:13.202Z,23.99
2023-04-28T09:07:13.240Z,24.03
2023-04-28T09:08:13.253Z,24.06
2023-04-28T09:09:13.431Z,24.11
2023-04-28T09:10:13.350Z,24.15
2023-04-28T09:11:13.410Z,24.18
2023-04-28T09:12:13.424Z,24.22
2023-04-28T09:13:13.437Z,24.25
2023-04-28T09:14:13.591Z,24.28
2023-04-28T09:15:13.493Z,24.32
2023-04-28T09:16:13.597Z,24.36
2023-04-28T09:17:13.581Z,24.39
2023-04-28T09:18:13.689Z,24.42
2023-04-28T09:19:13.613Z,24.46
2023-04-28T09:20:13.681Z,24.49
2023-04-28T09:21:13.674Z,24.51
2023-04-28T09:22:26.053Z,24.53
2023-04-28T09:23:14.708Z,24.56
2023-04-28T09:24:13.847Z,24.58
2023-04-28T09:25:13.667Z,24.61
2023-04-28T09:26:13.676Z,24.64
2023-04-28T09:27:13.660Z,24.66
2023-04-28T09:28:13.643Z,24.68
2023-04-28T09:29:13.700Z,24.69
2023-04-28T09:30:13.631Z,24.72
2023-04-28T09:31:13.638Z,24.73
2023-04-28T09:32:13.753Z,24.76
2023-04-28T09:33:13.709Z,24.77
2023-04-28T09:34:13.848Z,24.79
2023-04-28T09:35:13.599Z,24.79
2023-04-28T09:36:13.617Z,24.71
2023-04-28T09:37:13.606Z,24.55
2023-04-28T09:38:13.591Z,24.33
2023-04-28T09:39:13.570Z,24.14
2023-04-28T09:40:13.624Z,24.03
2023-04-28T09:41:13.594Z,23.88
2023-04-28T09:42:13.593Z,23.82
2023-04-28T09:43:21.237Z,23.80
2023-04-28T09:44:14.760Z,23.83
2023-04-28T09:45:13.565Z,23.88
2023-04-28T09:46:13.588Z,23.92
2023-04-28T09:47:13.524Z,23.96
2023-04-28T09:48:13.562Z,24.00
2023-04-28T09:49:13.566Z,24.04
2023-04-28T09:50:13.655Z,24.06
2023-04-28T09:51:13.673Z,24.08
2023-04-28T09:52:13.744Z,24.10
2023-04-28T09:53:13.795Z,24.14
2023-04-28T09:54:13.877Z,24.15
2023-04-28T09:55:13.922Z,24.16
2023-04-28T09:56:13.965Z,24.18
2023-04-28T09:57:14.083Z,24.20
2023-04-28T09:58:14.061Z,24.20
2023-04-28T09:59:14.098Z,24.20
2023-04-28T10:00:14.122Z,24.19
2023-04-28T10:01:14.415Z,24.20
2023-04-28T10:02:41.031Z,24.21
2023-04-28T10:03:15.347Z,24.21
2023-04-28T10:04:14.373Z,24.22
2023-04-28T10:05:14.396Z,24.21
2023-04-28T10:06:14.183Z,24.22
2023-04-28T10:07:14.168Z,24.22
2023-04-28T10:08:14.177Z,24.23
2023-04-28T10:09:14.194Z,24.23
2023-04-28T10:10:14.183Z,24.24
2023-04-28T10:11:14.154Z,24.25
2023-04-28T10:12:14.143Z,24.24
2023-04-28T10:13:14.128Z,24.24
2023-04-28T10:14:14.153Z,24.24
2023-04-28T10:15:14.201Z,24.24
2023-04-28T10:16:14.276Z,24.23
2023-04-28T10:17:14.294Z,24.23
2023-04-28T10:18:14.361Z,24.22
2023-04-28T10:19:14.393Z,24.21
2023-04-28T10:20:14.516Z,24.20
2023-04-28T10:21:14.504Z,24.20
2023-04-28T10:22:14.545Z,24.20
2023-04-28T10:23:14.588Z,24.19
2023-04-28T10:24:14.640Z,24.19
2023-04-28T10:25:14.669Z,24.18
2023-04-28T10:26:14.767Z,24.18
2023-04-28T10:27:14.797Z,24.18
2023-04-28T10:28:14.822Z,24.18
2023-04-28T10:29:14.881Z,24.17
2023-04-28T10:30:26.551Z,24.17
2023-04-28T10:31:16.015Z,24.16
2023-04-28T10:32:14.917Z,24.16
2023-04-28T10:33:15.050Z,24.16
2023-04-28T10:34:14.885Z,24.15
2023-04-28T10:35:14.932Z,24.14
2023-04-28T10:36:17.677Z,23.76
2023-04-28T10:37:14.897Z,23.31
2023-04-28T10:38:15.009Z,22.90
2023-04-28T10:39:14.856Z,22.52
2023-04-28T10:40:14.837Z,22.26
2023-04-28T10:41:14.820Z,22.03
2023-04-28T10:42:14.817Z,21.87
2023-04-28T10:43:14.803Z,21.62
2023-04-28T10:44:14.845Z,21.39
2023-04-28T10:45:14.777Z,21.14
2023-04-28T10:46:14.834Z,21.02
2023-04-28T10:47:14.761Z,20.95
2023-04-28T10:48:14.788Z,20.92
2023-04-28T10:49:14.804Z,20.93
2023-04-28T10:50:14.808Z,20.93
2023-04-28T10:51:14.792Z,20.94
2023-04-28T10:52:14.725Z,20.94
2023-04-28T10:53:14.762Z,20.97
2023-04-28T10:54:14.762Z,20.99
2023-04-28T10:55:22.100Z,21.02
2023-04-28T10:56:15.710Z,21.06
2023-04-28T10:57:14.749Z,21.08
2023-04-28T10:58:14.727Z,21.09
2023-04-28T10:59:14.720Z,21.10
2023-04-28T11:00:14.684Z,21.08
2023-04-28T11:01:14.744Z,21.09
2023-04-28T11:02:14.766Z,21.11
2023-04-28T11:03:14.800Z,21.12
2023-04-28T11:04:14.805Z,21.13
2023-04-28T11:05:14.805Z,21.15
2023-04-28T11:06:14.677Z,21.13
2023-04-28T11:07:14.656Z,21.11
2023-04-28T11:08:14.655Z,21.13
2023-04-28T11:09:14.808Z,21.13
2023-04-28T11:10:14.765Z,21.15
2023-04-28T11:11:14.782Z,21.14
2023-04-28T11:12:14.790Z,21.15
2023-04-28T11:13:14.801Z,21.14
2023-04-28T11:14:14.890Z,21.14
2023-04-28T11:15:14.932Z,21.17
2023-04-28T11:16:14.982Z,21.20
2023-04-28T11:17:15.068Z,21.20
2023-04-28T11:18:15.143Z,21.19
2023-04-28T11:19:15.213Z,21.15
2023-04-28T11:20:15.220Z,21.14
2023-04-28T11:21:15.317Z,21.11
2023-04-28T11:22:15.345Z,21.07
2023-04-28T11:23:15.428Z,21.06
2023-04-28T11:24:15.513Z,21.08
2023-04-28T11:25:15.516Z,21.09
2023-04-28T11:26:15.537Z,21.08
2023-04-28T11:27:15.540Z,21.07
2023-04-28T11:28:15.572Z,21.03
2023-04-28T11:29:15.846Z,21.03
2023-04-28T11:30:15.598Z,21.13
2023-04-28T11:31:15.734Z,21.26
2023-04-28T11:32:15.722Z,21.39
2023-04-28T11:33:15.750Z,21.51
2023-04-28T11:34:15.827Z,21.63
2023-04-28T11:35:15.804Z,21.74
2023-04-28T11:36:15.844Z,21.86
2023-04-28T11:37:16.090Z,21.96
2023-04-28T11:38:15.889Z,22.07
2023-04-28T11:39:16.302Z,22.17
2023-04-28T11:40:15.901Z,22.26
2023-04-28T11:41:15.948Z,22.34
2023-04-28T11:42:15.923Z,22.42
2023-04-28T11:43:15.969Z,22.49
2023-04-28T11:44:15.991Z,22.55
2023-04-28T11:45:16.034Z,22.62
2023-04-28T11:46:16.173Z,22.69
2023-04-28T11:47:16.204Z,22.76
2023-04-28T11:48:16.236Z,22.82
2023-04-28T11:49:16.286Z,22.87
2023-04-28T11:50:16.321Z,22.93
2023-04-28T11:51:16.354Z,22.97
2023-04-28T11:52:16.376Z,23.02
2023-04-28T11:53:16.423Z,23.07
2023-04-28T11:54:16.432Z,23.11
2023-04-28T11:55:16.461Z,23.16
2023-04-28T11:56:16.526Z,23.19
2023-04-28T11:57:16.558Z,23.23
2023-04-28T11:58:16.547Z,23.27
2023-04-28T11:59:16.629Z,23.29
2023-04-28T12:00:16.614Z,23.32
2023-04-28T12:01:16.745Z,23.37
2023-04-28T12:02:16.690Z,23.40
2023-04-28T12:03:16.703Z,23.43
2023-04-28T12:04:16.747Z,23.45
2023-04-28T12:05:16.762Z,23.47
2023-04-28T12:06:16.638Z,23.50
2023-04-28T12:07:16.664Z,23.52
2023-04-28T12:08:16.656Z,23.55
2023-04-28T12:09:16.685Z,23.57
2023-04-28T12:10:16.899Z,23.58
2023-04-28T12:11:19.647Z,23.59
2023-04-28T12:12:18.315Z,23.61
2023-04-28T12:13:16.695Z,23.63
2023-04-28T12:14:16.671Z,23.66
2023-04-28T12:15:18.052Z,23.68
2023-04-28T12:16:16.692Z,23.68
2023-04-28T12:17:16.678Z,23.70
2023-04-28T12:18:16.661Z,23.72
2023-04-28T12:19:16.643Z,23.75
2023-04-28T12:20:16.666Z,23.76
2023-04-28T12:21:16.629Z,23.77
2023-04-28T12:22:16.606Z,23.77
2023-04-28T12:23:16.630Z,23.79
2023-04-28T12:24:16.642Z,23.82
2023-04-28T12:25:16.616Z,23.85
2023-04-28T12:26:16.578Z,23.89
2023-04-28T12:27:16.641Z,23.92
2023-04-28T12:28:16.568Z,23.96
2023-04-28T12:29:16.593Z,23.99
2023-04-28T12:30:16.611Z,24.03
2023-04-28T12:31:16.636Z,24.07
2023-04-28T12:32:16.574Z,24.07
2023-04-28T12:33:16.573Z,24.11
2023-04-28T12:34:16.516Z,24.14
2023-04-28T12:35:16.517Z,24.18
2023-04-28T12:36:16.541Z,24.20
2023-04-28T12:37:16.535Z,24.22
2023-04-28T12:38:16.524Z,24.23
2023-04-28T12:39:16.551Z,24.25
2023-04-28T12:40:16.526Z,24.27
2023-04-28T12:41:16.521Z,24.30
2023-04-28T12:42:16.494Z,24.31
2023-04-28T12:43:16.518Z,24.33
2023-04-28T12:44:16.494Z,24.35
2023-04-28T12:45:16.527Z,24.36
2023-04-28T12:46:16.469Z,24.37
2023-04-28T12:47:16.433Z,24.38
2023-04-28T12:48:16.466Z,24.40
2023-04-28T12:49:16.440Z,24.41
2023-04-28T12:50:17.247Z,24.42
2023-04-28T12:51:16.400Z,24.43
2023-04-28T12:52:16.431Z,24.44
2023-04-28T12:53:16.438Z,24.44